sensor_id;sensor_type;location;lat;lon;timestamp;P1;durP1;ratioP1;P2;durP2;ratioP2
54384;SDS011;40284;52.878;5.998;2022-11-30T00:02:24;84.93;;;11.07;;
54384;SDS011;40284;52.878;5.998;2022-11-30T00:04:50;140.15;;;12.50;;
54384;SDS011;40284;52.878;5.998;2022-11-30T00:07:16;101.85;;;12.73;;
54384;SDS011;40284;52.878;5.998;2022-11-30T00:09:42;91.68;;;10.38;;
54384;SDS011;40284;52.878;5.998;2022-11-30T00:12:08;117.53;;;9.90;;
54384;SDS011;40284;52.878;5.998;2022-11-30T00:14:34;119.80;;;10.75;;
54384;SDS011;40284;52.878;5.998;2022-11-30T00:17:00;129.57;;;12.52;;
54384;SDS011;40284;52.878;5.998;2022-11-30T00:19:26;83.70;;;11.07;;
54384;SDS011;40284;52.878;5.998;2022-11-30T00:21:52;69.80;;;9.80;;
54384;SDS011;40284;52.878;5.998;2022-11-30T00:24:18;100.35;;;11.10;;
54384;SDS011;40284;52.878;5.998;2022-11-30T00:26:44;83.75;;;9.98;;
54384;SDS011;40284;52.878;5.998;2022-11-30T00:29:10;80.40;;;10.43;;
54384;SDS011;40284;52.878;5.998;2022-11-30T00:31:37;62.75;;;7.85;;
54384;SDS011;40284;52.878;5.998;2022-11-30T00:34:03;64.35;;;9.90;;
54384;SDS011;40284;52.878;5.998;2022-11-30T00:36:29;45.30;;;9.13;;
54384;SDS011;40284;52.878;5.998;2022-11-30T00:38:55;72.00;;;10.80;;
54384;SDS011;40284;52.878;5.998;2022-11-30T00:41:21;60.40;;;12.27;;
54384;SDS011;40284;52.878;5.998;2022-11-30T00:43:47;63.15;;;13.38;;
54384;SDS011;40284;52.878;5.998;2022-11-30T00:46:13;135.10;;;20.05;;
54384;SDS011;40284;52.878;5.998;2022-11-30T00:48:39;142.57;;;23.23;;
54384;SDS011;40284;52.878;5.998;2022-11-30T00:51:06;146.73;;;26.98;;
54384;SDS011;40284;52.878;5.998;2022-11-30T00:53:32;159.77;;;23.10;;
54384;SDS011;40284;52.878;5.998;2022-11-30T00:55:59;97.47;;;17.88;;
54384;SDS011;40284;52.878;5.998;2022-11-30T00:58:25;185.57;;;21.55;;
54384;SDS011;40284;52.878;5.998;2022-11-30T01:00:51;62.10;;;15.32;;
54384;SDS011;40284;52.878;5.998;2022-11-30T01:03:17;61.05;;;15.95;;
54384;SDS011;40284;52.878;5.998;2022-11-30T01:05:43;38.72;;;16.23;;
54384;SDS011;40284;52.878;5.998;2022-11-30T01:08:10;22.98;;;12.35;;
54384;SDS011;40284;52.878;5.998;2022-11-30T01:10:37;32.95;;;13.57;;
54384;SDS011;40284;52.878;5.998;2022-11-30T01:13:03;18.48;;;13.65;;
54384;SDS011;40284;52.878;5.998;2022-11-30T01:15:30;20.85;;;13.82;;
54384;SDS011;40284;52.878;5.998;2022-11-30T01:17:59;16.85;;;12.98;;
54384;SDS011;40284;52.878;5.998;2022-11-30T01:20:25;17.30;;;13.50;;
54384;SDS011;40284;52.878;5.998;2022-11-30T01:22:51;19.52;;;14.82;;
54384;SDS011;40284;52.878;5.998;2022-11-30T01:25:17;19.40;;;15.10;;
54384;SDS011;40284;52.878;5.998;2022-11-30T01:27:45;16.13;;;12.75;;
54384;SDS011;40284;52.878;5.998;2022-11-30T01:30:12;23.83;;;15.98;;
54384;SDS011;40284;52.878;5.998;2022-11-30T01:32:39;19.27;;;14.18;;
54384;SDS011;40284;52.878;5.998;2022-11-30T01:35:05;18.17;;;14.18;;
54384;SDS011;40284;52.878;5.998;2022-11-30T01:37:32;16.50;;;14.48;;
54384;SDS011;40284;52.878;5.998;2022-11-30T01:39:58;18.70;;;14.65;;
54384;SDS011;40284;52.878;5.998;2022-11-30T01:42:24;21.95;;;16.85;;
54384;SDS011;40284;52.878;5.998;2022-11-30T01:44:51;20.92;;;15.85;;
54384;SDS011;40284;52.878;5.998;2022-11-30T01:47:19;23.17;;;16.92;;
54384;SDS011;40284;52.878;5.998;2022-11-30T01:49:47;23.48;;;16.80;;
54384;SDS011;40284;52.878;5.998;2022-11-30T01:59:44;30.55;;;17.77;;
54384;SDS011;40284;52.878;5.998;2022-11-30T02:02:10;22.13;;;16.15;;
54384;SDS011;40284;52.878;5.998;2022-11-30T02:04:36;26.17;;;18.20;;
54384;SDS011;40284;52.878;5.998;2022-11-30T02:07:03;23.75;;;16.27;;
54384;SDS011;40284;52.878;5.998;2022-11-30T02:09:30;25.17;;;16.95;;
54384;SDS011;40284;52.878;5.998;2022-11-30T02:11:58;23.70;;;17.35;;
54384;SDS011;40284;52.878;5.998;2022-11-30T02:17:00;24.27;;;16.88;;
54384;SDS011;40284;52.878;5.998;2022-11-30T02:21:59;22.80;;;17.15;;
54384;SDS011;40284;52.878;5.998;2022-11-30T02:30:00;22.27;;;16.05;;
54384;SDS011;40284;52.878;5.998;2022-11-30T02:32:29;24.52;;;17.13;;
54384;SDS011;40284;52.878;5.998;2022-11-30T02:34:57;23.25;;;16.30;;
54384;SDS011;40284;52.878;5.998;2022-11-30T02:37:24;22.90;;;16.48;;
54384;SDS011;40284;52.878;5.998;2022-11-30T02:39:50;23.67;;;15.52;;
54384;SDS011;40284;52.878;5.998;2022-11-30T02:42:16;25.27;;;16.50;;
54384;SDS011;40284;52.878;5.998;2022-11-30T02:44:44;20.40;;;15.00;;
54384;SDS011;40284;52.878;5.998;2022-11-30T02:47:13;23.77;;;15.10;;
54384;SDS011;40284;52.878;5.998;2022-11-30T02:52:26;25.38;;;16.90;;
54384;SDS011;40284;52.878;5.998;2022-11-30T02:54:57;26.05;;;17.92;;
54384;SDS011;40284;52.878;5.998;2022-11-30T02:57:24;27.73;;;18.73;;
54384;SDS011;40284;52.878;5.998;2022-11-30T02:59:50;25.77;;;17.27;;
54384;SDS011;40284;52.878;5.998;2022-11-30T03:02:16;24.55;;;16.48;;
54384;SDS011;40284;52.878;5.998;2022-11-30T03:04:42;25.42;;;16.75;;
54384;SDS011;40284;52.878;5.998;2022-11-30T03:07:08;24.52;;;15.30;;
54384;SDS011;40284;52.878;5.998;2022-11-30T03:09:34;25.23;;;18.67;;
54384;SDS011;40284;52.878;5.998;2022-11-30T03:12:00;25.30;;;16.95;;
54384;SDS011;40284;52.878;5.998;2022-11-30T03:14:26;25.27;;;17.67;;
54384;SDS011;40284;52.878;5.998;2022-11-30T03:16:52;29.05;;;19.23;;
54384;SDS011;40284;52.878;5.998;2022-11-30T03:19:18;26.35;;;18.60;;
54384;SDS011;40284;52.878;5.998;2022-11-30T03:21:44;24.25;;;16.88;;
54384;SDS011;40284;52.878;5.998;2022-11-30T03:24:10;26.95;;;19.58;;
54384;SDS011;40284;52.878;5.998;2022-11-30T03:26:36;26.17;;;18.70;;
54384;SDS011;40284;52.878;5.998;2022-11-30T03:29:02;26.02;;;18.52;;
54384;SDS011;40284;52.878;5.998;2022-11-30T03:31:28;26.27;;;17.55;;
54384;SDS011;40284;52.878;5.998;2022-11-30T03:33:54;248.32;;;22.92;;
54384;SDS011;40284;52.878;5.998;2022-11-30T03:36:20;142.15;;;13.90;;
54384;SDS011;40284;52.878;5.998;2022-11-30T03:38:47;265.92;;;16.95;;
54384;SDS011;40284;52.878;5.998;2022-11-30T03:41:13;233.30;;;16.42;;
54384;SDS011;40284;52.878;5.998;2022-11-30T03:43:43;178.98;;;14.57;;
54384;SDS011;40284;52.878;5.998;2022-11-30T03:46:09;149.00;;;13.13;;
54384;SDS011;40284;52.878;5.998;2022-11-30T03:48:36;113.07;;;11.75;;
54384;SDS011;40284;52.878;5.998;2022-11-30T03:51:05;140.82;;;13.00;;
54384;SDS011;40284;52.878;5.998;2022-11-30T03:53:31;105.05;;;11.70;;
54384;SDS011;40284;52.878;5.998;2022-11-30T03:55:59;106.85;;;11.20;;
54384;SDS011;40284;52.878;5.998;2022-11-30T03:58:25;70.13;;;9.55;;
54384;SDS011;40284;52.878;5.998;2022-11-30T04:01:04;72.32;;;11.75;;
54384;SDS011;40284;52.878;5.998;2022-11-30T04:03:32;49.00;;;10.77;;
54384;SDS011;40284;52.878;5.998;2022-11-30T04:05:58;70.70;;;21.63;;
54384;SDS011;40284;52.878;5.998;2022-11-30T04:08:24;106.50;;;15.75;;
54384;SDS011;40284;52.878;5.998;2022-11-30T04:10:51;190.00;;;20.10;;
54384;SDS011;40284;52.878;5.998;2022-11-30T04:13:18;141.13;;;22.08;;
54384;SDS011;40284;52.878;5.998;2022-11-30T04:15:47;63.47;;;21.88;;
54384;SDS011;40284;52.878;5.998;2022-11-30T04:18:14;71.95;;;26.35;;
54384;SDS011;40284;52.878;5.998;2022-11-30T04:20:40;52.92;;;25.23;;
54384;SDS011;40284;52.878;5.998;2022-11-30T04:23:07;92.47;;;35.42;;
54384;SDS011;40284;52.878;5.998;2022-11-30T04:25:33;51.10;;;15.95;;
54384;SDS011;40284;52.878;5.998;2022-11-30T04:27:59;20.27;;;10.52;;
54384;SDS011;40284;52.878;5.998;2022-11-30T04:30:25;28.17;;;11.18;;
54384;SDS011;40284;52.878;5.998;2022-11-30T04:32:51;15.07;;;9.55;;
54384;SDS011;40284;52.878;5.998;2022-11-30T04:35:17;10.05;;;8.70;;
54384;SDS011;40284;52.878;5.998;2022-11-30T04:37:43;13.93;;;8.27;;
54384;SDS011;40284;52.878;5.998;2022-11-30T04:40:09;35.25;;;9.13;;
54384;SDS011;40284;52.878;5.998;2022-11-30T04:42:36;107.13;;;12.13;;
54384;SDS011;40284;52.878;5.998;2022-11-30T04:45:02;67.88;;;11.18;;
54384;SDS011;40284;52.878;5.998;2022-11-30T04:47:28;72.22;;;12.48;;
54384;SDS011;40284;52.878;5.998;2022-11-30T04:49:54;69.72;;;11.20;;
54384;SDS011;40284;52.878;5.998;2022-11-30T04:52:20;30.05;;;11.65;;
54384;SDS011;40284;52.878;5.998;2022-11-30T04:54:46;32.63;;;11.52;;
54384;SDS011;40284;52.878;5.998;2022-11-30T04:57:12;14.73;;;10.95;;
54384;SDS011;40284;52.878;5.998;2022-11-30T04:59:38;12.48;;;10.05;;
54384;SDS011;40284;52.878;5.998;2022-11-30T05:02:04;12.90;;;10.13;;
54384;SDS011;40284;52.878;5.998;2022-11-30T05:04:30;11.23;;;9.40;;
54384;SDS011;40284;52.878;5.998;2022-11-30T05:06:56;14.27;;;10.13;;
54384;SDS011;40284;52.878;5.998;2022-11-30T05:09:23;14.23;;;10.45;;
54384;SDS011;40284;52.878;5.998;2022-11-30T05:11:49;12.55;;;9.52;;
54384;SDS011;40284;52.878;5.998;2022-11-30T05:14:15;14.35;;;9.73;;
54384;SDS011;40284;52.878;5.998;2022-11-30T05:16:41;13.80;;;10.85;;
54384;SDS011;40284;52.878;5.998;2022-11-30T05:19:07;13.98;;;9.95;;
54384;SDS011;40284;52.878;5.998;2022-11-30T05:21:33;13.68;;;9.82;;
54384;SDS011;40284;52.878;5.998;2022-11-30T05:23:59;13.90;;;10.15;;
54384;SDS011;40284;52.878;5.998;2022-11-30T05:26:25;15.32;;;10.95;;
54384;SDS011;40284;52.878;5.998;2022-11-30T05:28:51;13.65;;;9.80;;
54384;SDS011;40284;52.878;5.998;2022-11-30T05:31:17;13.45;;;10.75;;
54384;SDS011;40284;52.878;5.998;2022-11-30T05:33:43;15.90;;;11.88;;
54384;SDS011;40284;52.878;5.998;2022-11-30T05:36:14;16.27;;;12.10;;
54384;SDS011;40284;52.878;5.998;2022-11-30T05:38:40;15.48;;;11.55;;
54384;SDS011;40284;52.878;5.998;2022-11-30T05:41:06;16.75;;;11.57;;
54384;SDS011;40284;52.878;5.998;2022-11-30T05:43:32;21.80;;;13.77;;
54384;SDS011;40284;52.878;5.998;2022-11-30T05:46:02;17.92;;;13.73;;
54384;SDS011;40284;52.878;5.998;2022-11-30T05:48:28;22.27;;;13.40;;
54384;SDS011;40284;52.878;5.998;2022-11-30T05:50:54;21.27;;;14.07;;
54384;SDS011;40284;52.878;5.998;2022-11-30T05:53:20;19.30;;;14.02;;
54384;SDS011;40284;52.878;5.998;2022-11-30T05:55:46;20.98;;;14.40;;
54384;SDS011;40284;52.878;5.998;2022-11-30T05:58:13;19.10;;;13.45;;
54384;SDS011;40284;52.878;5.998;2022-11-30T06:00:39;18.95;;;13.55;;
54384;SDS011;40284;52.878;5.998;2022-11-30T06:03:05;21.73;;;13.07;;
54384;SDS011;40284;52.878;5.998;2022-11-30T06:05:32;21.65;;;15.35;;
54384;SDS011;40284;52.878;5.998;2022-11-30T06:07:59;23.05;;;14.15;;
54384;SDS011;40284;52.878;5.998;2022-11-30T06:10:25;20.45;;;14.98;;
54384;SDS011;40284;52.878;5.998;2022-11-30T06:12:51;30.88;;;15.82;;
54384;SDS011;40284;52.878;5.998;2022-11-30T06:15:17;23.58;;;15.65;;
54384;SDS011;40284;52.878;5.998;2022-11-30T06:17:43;26.00;;;16.23;;
54384;SDS011;40284;52.878;5.998;2022-11-30T06:20:09;27.67;;;19.13;;
54384;SDS011;40284;52.878;5.998;2022-11-30T06:22:35;25.45;;;17.42;;
54384;SDS011;40284;52.878;5.998;2022-11-30T06:25:01;26.83;;;17.02;;
54384;SDS011;40284;52.878;5.998;2022-11-30T06:27:30;23.70;;;17.65;;
54384;SDS011;40284;52.878;5.998;2022-11-30T06:29:56;24.70;;;17.10;;
54384;SDS011;40284;52.878;5.998;2022-11-30T06:32:23;23.40;;;16.88;;
54384;SDS011;40284;52.878;5.998;2022-11-30T06:34:49;27.05;;;18.35;;
54384;SDS011;40284;52.878;5.998;2022-11-30T06:37:15;31.70;;;21.90;;
54384;SDS011;40284;52.878;5.998;2022-11-30T06:39:41;26.75;;;19.08;;
54384;SDS011;40284;52.878;5.998;2022-11-30T06:42:07;27.35;;;19.65;;
54384;SDS011;40284;52.878;5.998;2022-11-30T06:44:33;24.67;;;18.20;;
54384;SDS011;40284;52.878;5.998;2022-11-30T06:46:59;27.27;;;18.27;;
54384;SDS011;40284;52.878;5.998;2022-11-30T06:49:25;22.38;;;16.75;;
54384;SDS011;40284;52.878;5.998;2022-11-30T06:51:51;26.42;;;19.42;;
54384;SDS011;40284;52.878;5.998;2022-11-30T06:54:17;27.02;;;19.13;;
54384;SDS011;40284;52.878;5.998;2022-11-30T06:56:43;29.48;;;19.40;;
54384;SDS011;40284;52.878;5.998;2022-11-30T06:59:09;25.77;;;19.13;;
54384;SDS011;40284;52.878;5.998;2022-11-30T07:01:35;28.67;;;17.98;;
54384;SDS011;40284;52.878;5.998;2022-11-30T07:04:01;24.75;;;17.40;;
54384;SDS011;40284;52.878;5.998;2022-11-30T07:06:27;25.80;;;17.70;;
54384;SDS011;40284;52.878;5.998;2022-11-30T07:08:53;24.48;;;17.05;;
54384;SDS011;40284;52.878;5.998;2022-11-30T07:11:19;23.50;;;16.05;;
54384;SDS011;40284;52.878;5.998;2022-11-30T07:13:45;26.02;;;17.48;;
54384;SDS011;40284;52.878;5.998;2022-11-30T07:16:11;26.20;;;18.38;;
54384;SDS011;40284;52.878;5.998;2022-11-30T07:18:38;24.88;;;17.63;;
54384;SDS011;40284;52.878;5.998;2022-11-30T07:21:05;30.05;;;18.10;;
54384;SDS011;40284;52.878;5.998;2022-11-30T07:23:31;26.98;;;18.13;;
54384;SDS011;40284;52.878;5.998;2022-11-30T07:26:16;26.65;;;18.20;;
54384;SDS011;40284;52.878;5.998;2022-11-30T07:28:42;35.22;;;24.60;;
54384;SDS011;40284;52.878;5.998;2022-11-30T07:33:40;32.30;;;21.60;;
54384;SDS011;40284;52.878;5.998;2022-11-30T07:36:06;24.63;;;17.73;;
54384;SDS011;40284;52.878;5.998;2022-11-30T07:38:33;28.85;;;18.63;;
54384;SDS011;40284;52.878;5.998;2022-11-30T07:40:59;23.50;;;17.17;;
54384;SDS011;40284;52.878;5.998;2022-11-30T07:43:26;25.67;;;17.65;;
54384;SDS011;40284;52.878;5.998;2022-11-30T07:45:52;25.27;;;18.65;;
54384;SDS011;40284;52.878;5.998;2022-11-30T07:48:19;26.98;;;19.05;;
54384;SDS011;40284;52.878;5.998;2022-11-30T07:50:45;29.77;;;20.30;;
54384;SDS011;40284;52.878;5.998;2022-11-30T07:53:11;27.73;;;18.92;;
54384;SDS011;40284;52.878;5.998;2022-11-30T07:55:38;26.67;;;19.77;;
54384;SDS011;40284;52.878;5.998;2022-11-30T07:58:04;28.23;;;18.13;;
54384;SDS011;40284;52.878;5.998;2022-11-30T08:00:30;34.53;;;21.42;;
54384;SDS011;40284;52.878;5.998;2022-11-30T08:02:56;34.00;;;21.23;;
54384;SDS011;40284;52.878;5.998;2022-11-30T08:05:22;34.78;;;21.95;;
54384;SDS011;40284;52.878;5.998;2022-11-30T08:07:57;37.88;;;24.20;;
54384;SDS011;40284;52.878;5.998;2022-11-30T08:10:23;32.65;;;22.73;;
54384;SDS011;40284;52.878;5.998;2022-11-30T08:12:49;40.55;;;26.02;;
54384;SDS011;40284;52.878;5.998;2022-11-30T08:15:16;38.47;;;23.75;;
54384;SDS011;40284;52.878;5.998;2022-11-30T08:17:42;45.50;;;27.05;;
54384;SDS011;40284;52.878;5.998;2022-11-30T08:20:08;39.13;;;25.10;;
54384;SDS011;40284;52.878;5.998;2022-11-30T08:22:35;42.47;;;25.67;;
54384;SDS011;40284;52.878;5.998;2022-11-30T08:25:02;43.55;;;27.13;;
54384;SDS011;40284;52.878;5.998;2022-11-30T08:27:28;44.15;;;25.63;;
54384;SDS011;40284;52.878;5.998;2022-11-30T08:29:54;41.33;;;25.50;;
54384;SDS011;40284;52.878;5.998;2022-11-30T08:32:20;45.28;;;27.08;;
54384;SDS011;40284;52.878;5.998;2022-11-30T08:34:46;43.22;;;25.52;;
54384;SDS011;40284;52.878;5.998;2022-11-30T08:37:12;39.47;;;24.40;;
54384;SDS011;40284;52.878;5.998;2022-11-30T08:39:38;46.97;;;26.70;;
54384;SDS011;40284;52.878;5.998;2022-11-30T08:42:04;41.10;;;23.50;;
54384;SDS011;40284;52.878;5.998;2022-11-30T08:44:30;39.50;;;24.35;;
54384;SDS011;40284;52.878;5.998;2022-11-30T08:46:57;40.35;;;25.58;;
54384;SDS011;40284;52.878;5.998;2022-11-30T08:49:23;44.28;;;26.98;;
54384;SDS011;40284;52.878;5.998;2022-11-30T08:51:49;41.67;;;26.40;;
54384;SDS011;40284;52.878;5.998;2022-11-30T08:54:16;48.10;;;27.55;;
54384;SDS011;40284;52.878;5.998;2022-11-30T08:56:42;49.85;;;29.20;;
54384;SDS011;40284;52.878;5.998;2022-11-30T08:59:08;48.08;;;27.88;;
54384;SDS011;40284;52.878;5.998;2022-11-30T09:01:34;47.78;;;28.42;;
54384;SDS011;40284;52.878;5.998;2022-11-30T09:04:00;54.33;;;29.38;;
54384;SDS011;40284;52.878;5.998;2022-11-30T09:06:27;48.63;;;27.20;;
54384;SDS011;40284;52.878;5.998;2022-11-30T09:08:54;55.30;;;30.27;;
54384;SDS011;40284;52.878;5.998;2022-11-30T09:11:25;51.53;;;28.70;;
54384;SDS011;40284;52.878;5.998;2022-11-30T09:13:51;50.42;;;28.92;;
54384;SDS011;40284;52.878;5.998;2022-11-30T09:16:18;53.30;;;29.77;;
54384;SDS011;40284;52.878;5.998;2022-11-30T09:18:45;43.00;;;25.50;;
54384;SDS011;40284;52.878;5.998;2022-11-30T09:21:12;43.13;;;26.40;;
54384;SDS011;40284;52.878;5.998;2022-11-30T09:23:38;42.47;;;28.48;;
54384;SDS011;40284;52.878;5.998;2022-11-30T09:26:06;41.47;;;28.73;;
54384;SDS011;40284;52.878;5.998;2022-11-30T09:28:33;40.05;;;26.25;;
54384;SDS011;40284;52.878;5.998;2022-11-30T09:31:00;43.58;;;29.75;;
54384;SDS011;40284;52.878;5.998;2022-11-30T09:33:26;50.42;;;29.27;;
54384;SDS011;40284;52.878;5.998;2022-11-30T09:36:06;48.97;;;28.83;;
54384;SDS011;40284;52.878;5.998;2022-11-30T09:38:32;46.92;;;29.70;;
54384;SDS011;40284;52.878;5.998;2022-11-30T09:40:59;49.22;;;30.38;;
54384;SDS011;40284;52.878;5.998;2022-11-30T09:46:18;47.92;;;29.10;;
54384;SDS011;40284;52.878;5.998;2022-11-30T09:48:58;44.88;;;28.67;;
54384;SDS011;40284;52.878;5.998;2022-11-30T09:51:32;48.85;;;28.80;;
54384;SDS011;40284;52.878;5.998;2022-11-30T09:54:01;44.35;;;26.70;;
54384;SDS011;40284;52.878;5.998;2022-11-30T09:56:33;49.13;;;29.97;;
54384;SDS011;40284;52.878;5.998;2022-11-30T09:59:04;54.22;;;29.20;;
54384;SDS011;40284;52.878;5.998;2022-11-30T10:01:31;46.05;;;28.52;;
54384;SDS011;40284;52.878;5.998;2022-11-30T10:03:58;46.33;;;27.27;;
54384;SDS011;40284;52.878;5.998;2022-11-30T10:09:17;49.53;;;29.85;;
54384;SDS011;40284;52.878;5.998;2022-11-30T10:22:54;57.67;;;31.80;;
54384;SDS011;40284;52.878;5.998;2022-11-30T10:25:24;47.25;;;28.20;;
54384;SDS011;40284;52.878;5.998;2022-11-30T10:27:56;50.83;;;29.15;;
54384;SDS011;40284;52.878;5.998;2022-11-30T10:30:29;54.67;;;30.77;;
54384;SDS011;40284;52.878;5.998;2022-11-30T10:32:57;50.58;;;28.77;;
54384;SDS011;40284;52.878;5.998;2022-11-30T10:37:53;42.65;;;27.83;;
54384;SDS011;40284;52.878;5.998;2022-11-30T10:40:23;50.72;;;29.00;;
54384;SDS011;40284;52.878;5.998;2022-11-30T10:42:53;52.15;;;29.45;;
54384;SDS011;40284;52.878;5.998;2022-11-30T10:45:22;46.75;;;27.65;;
54384;SDS011;40284;52.878;5.998;2022-11-30T10:47:58;41.75;;;26.58;;
54384;SDS011;40284;52.878;5.998;2022-11-30T10:50:26;46.45;;;28.52;;
54384;SDS011;40284;52.878;5.998;2022-11-30T10:52:54;45.20;;;26.75;;
54384;SDS011;40284;52.878;5.998;2022-11-30T10:55:28;43.97;;;27.27;;
54384;SDS011;40284;52.878;5.998;2022-11-30T10:57:57;45.35;;;27.30;;
54384;SDS011;40284;52.878;5.998;2022-11-30T11:00:24;44.83;;;27.60;;
54384;SDS011;40284;52.878;5.998;2022-11-30T11:02:50;46.13;;;27.90;;
54384;SDS011;40284;52.878;5.998;2022-11-30T11:05:21;45.20;;;26.98;;
54384;SDS011;40284;52.878;5.998;2022-11-30T11:10:56;40.20;;;25.75;;
54384;SDS011;40284;52.878;5.998;2022-11-30T11:13:03;45.78;;;28.08;;
54384;SDS011;40284;52.878;5.998;2022-11-30T11:15:30;45.28;;;26.98;;
54384;SDS011;40284;52.878;5.998;2022-11-30T11:20:40;45.92;;;28.55;;
54384;SDS011;40284;52.878;5.998;2022-11-30T11:23:26;42.95;;;26.77;;
54384;SDS011;40284;52.878;5.998;2022-11-30T11:25:54;42.63;;;26.15;;
54384;SDS011;40284;52.878;5.998;2022-11-30T11:28:21;41.45;;;26.27;;
54384;SDS011;40284;52.878;5.998;2022-11-30T11:30:50;45.78;;;27.27;;
54384;SDS011;40284;52.878;5.998;2022-11-30T11:33:19;42.70;;;27.20;;
54384;SDS011;40284;52.878;5.998;2022-11-30T11:35:47;42.95;;;27.77;;
54384;SDS011;40284;52.878;5.998;2022-11-30T11:41:02;46.03;;;28.15;;
54384;SDS011;40284;52.878;5.998;2022-11-30T11:46:11;45.63;;;27.88;;
54384;SDS011;40284;52.878;5.998;2022-11-30T11:48:38;37.97;;;25.90;;
54384;SDS011;40284;52.878;5.998;2022-11-30T11:51:06;48.17;;;28.52;;
54384;SDS011;40284;52.878;5.998;2022-11-30T11:56:10;42.72;;;29.08;;
54384;SDS011;40284;52.878;5.998;2022-11-30T11:58:39;45.35;;;28.20;;
54384;SDS011;40284;52.878;5.998;2022-11-30T12:01:07;44.70;;;27.83;;
54384;SDS011;40284;52.878;5.998;2022-11-30T12:03:52;43.85;;;27.63;;
54384;SDS011;40284;52.878;5.998;2022-11-30T12:06:21;41.38;;;26.92;;
54384;SDS011;40284;52.878;5.998;2022-11-30T12:11:44;39.10;;;24.40;;
54384;SDS011;40284;52.878;5.998;2022-11-30T12:14:12;35.85;;;23.70;;
54384;SDS011;40284;52.878;5.998;2022-11-30T12:21:35;36.85;;;25.73;;
54384;SDS011;40284;52.878;5.998;2022-11-30T12:24:05;38.67;;;25.75;;
54384;SDS011;40284;52.878;5.998;2022-11-30T12:26:40;37.78;;;25.23;;
54384;SDS011;40284;52.878;5.998;2022-11-30T12:31:48;42.58;;;25.13;;
54384;SDS011;40284;52.878;5.998;2022-11-30T12:37:07;36.78;;;25.05;;
54384;SDS011;40284;52.878;5.998;2022-11-30T12:42:05;46.70;;;28.60;;
54384;SDS011;40284;52.878;5.998;2022-11-30T12:44:36;52.80;;;34.92;;
54384;SDS011;40284;52.878;5.998;2022-11-30T12:52:02;35.67;;;25.15;;
54384;SDS011;40284;52.878;5.998;2022-11-30T12:54:45;41.70;;;24.73;;
54384;SDS011;40284;52.878;5.998;2022-11-30T12:57:16;37.40;;;24.67;;
54384;SDS011;40284;52.878;5.998;2022-11-30T13:05:05;41.80;;;25.75;;
54384;SDS011;40284;52.878;5.998;2022-11-30T13:07:43;41.27;;;24.43;;
54384;SDS011;40284;52.878;5.998;2022-11-30T13:12:43;38.72;;;23.27;;
54384;SDS011;40284;52.878;5.998;2022-11-30T13:15:19;43.78;;;28.83;;
54384;SDS011;40284;52.878;5.998;2022-11-30T13:17:47;37.20;;;24.73;;
54384;SDS011;40284;52.878;5.998;2022-11-30T13:25:26;37.85;;;26.83;;
54384;SDS011;40284;52.878;5.998;2022-11-30T13:28:03;41.53;;;26.92;;
54384;SDS011;40284;52.878;5.998;2022-11-30T13:30:37;44.38;;;27.23;;
54384;SDS011;40284;52.878;5.998;2022-11-30T13:39:06;49.13;;;30.52;;
54384;SDS011;40284;52.878;5.998;2022-11-30T13:41:33;49.35;;;30.88;;
54384;SDS011;40284;52.878;5.998;2022-11-30T13:44:00;48.03;;;31.30;;
54384;SDS011;40284;52.878;5.998;2022-11-30T13:46:27;47.47;;;30.25;;
54384;SDS011;40284;52.878;5.998;2022-11-30T13:52:04;50.88;;;29.73;;
54384;SDS011;40284;52.878;5.998;2022-11-30T13:54:40;53.05;;;32.13;;
54384;SDS011;40284;52.878;5.998;2022-11-30T14:02:51;53.15;;;33.92;;
54384;SDS011;40284;52.878;5.998;2022-11-30T14:05:22;55.28;;;32.80;;
54384;SDS011;40284;52.878;5.998;2022-11-30T14:17:58;53.00;;;33.90;;
54384;SDS011;40284;52.878;5.998;2022-11-30T14:20:30;54.63;;;34.03;;
54384;SDS011;40284;52.878;5.998;2022-11-30T14:23:01;54.30;;;33.80;;
54384;SDS011;40284;52.878;5.998;2022-11-30T14:25:28;53.10;;;33.65;;
54384;SDS011;40284;52.878;5.998;2022-11-30T14:27:55;54.72;;;34.85;;
54384;SDS011;40284;52.878;5.998;2022-11-30T14:30:22;57.15;;;34.60;;
54384;SDS011;40284;52.878;5.998;2022-11-30T14:32:54;52.33;;;34.63;;
54384;SDS011;40284;52.878;5.998;2022-11-30T14:35:21;54.13;;;35.30;;
54384;SDS011;40284;52.878;5.998;2022-11-30T14:37:57;60.17;;;37.35;;
54384;SDS011;40284;52.878;5.998;2022-11-30T14:40:24;48.70;;;32.78;;
54384;SDS011;40284;52.878;5.998;2022-11-30T14:42:52;54.33;;;34.42;;
54384;SDS011;40284;52.878;5.998;2022-11-30T14:45:19;52.10;;;33.60;;
54384;SDS011;40284;52.878;5.998;2022-11-30T14:47:48;55.35;;;34.58;;
54384;SDS011;40284;52.878;5.998;2022-11-30T14:50:25;55.10;;;35.75;;
54384;SDS011;40284;52.878;5.998;2022-11-30T14:52:54;53.50;;;34.13;;
54384;SDS011;40284;52.878;5.998;2022-11-30T15:00:58;53.65;;;36.10;;
54384;SDS011;40284;52.878;5.998;2022-11-30T15:03:25;56.90;;;35.58;;
54384;SDS011;40284;52.878;5.998;2022-11-30T15:05:53;54.08;;;34.10;;
54384;SDS011;40284;52.878;5.998;2022-11-30T15:08:19;55.78;;;36.08;;
54384;SDS011;40284;52.878;5.998;2022-11-30T15:10:45;60.67;;;36.90;;
54384;SDS011;40284;52.878;5.998;2022-11-30T15:13:12;56.50;;;35.13;;
54384;SDS011;40284;52.878;5.998;2022-11-30T15:15:50;58.47;;;37.30;;
54384;SDS011;40284;52.878;5.998;2022-11-30T15:18:17;60.22;;;37.03;;
54384;SDS011;40284;52.878;5.998;2022-11-30T15:20:52;55.17;;;36.75;;
54384;SDS011;40284;52.878;5.998;2022-11-30T15:23:19;54.25;;;36.33;;
54384;SDS011;40284;52.878;5.998;2022-11-30T15:25:49;57.80;;;35.90;;
54384;SDS011;40284;52.878;5.998;2022-11-30T15:28:19;57.00;;;35.75;;
54384;SDS011;40284;52.878;5.998;2022-11-30T15:30:47;58.22;;;35.53;;
54384;SDS011;40284;52.878;5.998;2022-11-30T15:33:16;56.03;;;35.15;;
54384;SDS011;40284;52.878;5.998;2022-11-30T15:35:44;53.10;;;35.13;;
54384;SDS011;40284;52.878;5.998;2022-11-30T15:38:13;54.92;;;35.38;;
54384;SDS011;40284;52.878;5.998;2022-11-30T15:40:40;57.88;;;37.85;;
54384;SDS011;40284;52.878;5.998;2022-11-30T15:43:10;56.72;;;34.67;;
54384;SDS011;40284;52.878;5.998;2022-11-30T15:45:50;57.00;;;35.60;;
54384;SDS011;40284;52.878;5.998;2022-11-30T15:48:49;61.88;;;38.33;;
54384;SDS011;40284;52.878;5.998;2022-11-30T15:51:21;59.20;;;35.30;;
54384;SDS011;40284;52.878;5.998;2022-11-30T15:53:48;52.35;;;34.78;;
54384;SDS011;40284;52.878;5.998;2022-11-30T15:56:22;61.05;;;36.20;;
54384;SDS011;40284;52.878;5.998;2022-11-30T15:59:02;62.53;;;37.35;;
54384;SDS011;40284;52.878;5.998;2022-11-30T16:01:29;54.13;;;33.15;;
54384;SDS011;40284;52.878;5.998;2022-11-30T16:04:05;58.65;;;35.90;;
54384;SDS011;40284;52.878;5.998;2022-11-30T16:06:35;59.80;;;36.35;;
54384;SDS011;40284;52.878;5.998;2022-11-30T16:09:15;57.72;;;35.15;;
54384;SDS011;40284;52.878;5.998;2022-11-30T16:11:42;56.30;;;34.65;;
54384;SDS011;40284;52.878;5.998;2022-11-30T16:14:12;64.18;;;38.15;;
54384;SDS011;40284;52.878;5.998;2022-11-30T16:16:39;54.20;;;34.90;;
54384;SDS011;40284;52.878;5.998;2022-11-30T16:19:06;58.33;;;36.70;;
54384;SDS011;40284;52.878;5.998;2022-11-30T16:21:32;60.45;;;36.30;;
54384;SDS011;40284;52.878;5.998;2022-11-30T16:23:58;58.92;;;36.00;;
54384;SDS011;40284;52.878;5.998;2022-11-30T16:26:25;58.08;;;36.10;;